MMTJ/TIJ METAR and TAF weather

Enter ICAO airport designator
Station Type Date Time Source
MMTJ METAR 2023/02/05 14:45 UTC NOAA

MMTJ 051445Z 00000KT 10SM SKC 07/07 A3023 RMK SLP230 57007 972 HZY ST W


Station Type Date Time Source
MMTJ Decoded METAR 2023/02/05 14:45 UTC NOAA

Tijuana International Airport , Mexico (MMTJ) 32-33N 116-58W
Feb 05, 2023 - 09:45 AM EST / 2023.02.05 1445 UTC
Wind: Calm:0
Visibility: 10 mile(s):0
Sky conditions: clear
Temperature: 44 F (7 C)
Dew Point: 44 F (7 C)
Relative Humidity: 100%
Pressure (altimeter): 30.23 in. Hg (1023 hPa)
Pressure tendency: 0.02 inches (0.7 hPa) lower than three hours ago
ob: MMTJ 051445Z 00000KT 10SM SKC 07/07 A3023 RMK SLP230 57007 972 HZY ST W
cycle: 15

Station Type Date Time Source
MMTJ TAF 2023/02/05 12:59 UTC NOAA

TAF MMTJ 051059Z 0512/0612 00000KT 6SM HZ SKC TX16/0521Z TN07/0512Z
FM052000 24010KT 6SM HZ BKN020
TEMPO 0521/0601 24010G20KT
FM060100 24008KT 6SM HZ SCT015
FM060600 33005KT 5SM HZ OVC010

Example: see airport list